sensor_id;sensor_type;location;lat;lon;timestamp;pressure;altitude;pressure_sealevel;temperature;humidity
72909;BME280;61051;62.624;17.950;2022-07-12T00:02:07;101836.75;;;12.17;83.68
72909;BME280;61051;62.624;17.950;2022-07-12T00:04:35;101829.91;;;12.16;81.49
72909;BME280;61051;62.624;17.950;2022-07-12T00:07:04;101824.37;;;12.15;82.39
72909;BME280;61051;62.624;17.950;2022-07-12T00:09:32;101818.27;;;11.98;81.08
72909;BME280;61051;62.624;17.950;2022-07-12T00:12:00;101818.65;;;12.11;83.09
72909;BME280;61051;62.624;17.950;2022-07-12T00:14:28;101820.73;;;11.92;81.14
72909;BME280;61051;62.624;17.950;2022-07-12T00:16:58;101823.68;;;12.00;80.40
72909;BME280;61051;62.624;17.950;2022-07-12T00:19:27;101822.33;;;11.82;81.68
72909;BME280;61051;62.624;17.950;2022-07-12T00:21:55;101827.41;;;11.89;82.40
72909;BME280;61051;62.624;17.950;2022-07-12T00:24:23;101826.09;;;11.81;82.78
72909;BME280;61051;62.624;17.950;2022-07-12T00:26:51;101823.60;;;11.86;82.19
72909;BME280;61051;62.624;17.950;2022-07-12T00:29:19;101821.97;;;11.82;81.31
72909;BME280;61051;62.624;17.950;2022-07-12T00:31:48;101819.13;;;11.65;81.22
72909;BME280;61051;62.624;17.950;2022-07-12T00:34:16;101822.67;;;11.55;81.34
72909;BME280;61051;62.624;17.950;2022-07-12T00:36:44;101829.28;;;11.45;81.11
72909;BME280;61051;62.624;17.950;2022-07-12T00:39:12;101835.18;;;11.49;82.29
72909;BME280;61051;62.624;17.950;2022-07-12T00:41:41;101836.72;;;11.42;82.85
72909;BME280;61051;62.624;17.950;2022-07-12T00:44:09;101835.46;;;11.48;82.55
72909;BME280;61051;62.624;17.950;2022-07-12T00:46:37;101835.43;;;11.50;83.15
72909;BME280;61051;62.624;17.950;2022-07-12T00:49:06;101835.13;;;11.41;83.11
72909;BME280;61051;62.624;17.950;2022-07-12T00:51:34;101837.70;;;11.58;83.13
72909;BME280;61051;62.624;17.950;2022-07-12T00:54:03;101843.05;;;11.50;82.67
72909;BME280;61051;62.624;17.950;2022-07-12T00:56:32;101842.02;;;11.42;81.86
72909;BME280;61051;62.624;17.950;2022-07-12T00:59:00;101837.85;;;11.36;81.36
72909;BME280;61051;62.624;17.950;2022-07-12T01:01:28;101840.64;;;11.42;82.70
72909;BME280;61051;62.624;17.950;2022-07-12T01:03:57;101841.12;;;11.49;81.81
72909;BME280;61051;62.624;17.950;2022-07-12T01:06:27;101840.45;;;11.30;80.65
72909;BME280;61051;62.624;17.950;2022-07-12T01:08:56;101838.64;;;11.33;82.06
72909;BME280;61051;62.624;17.950;2022-07-12T01:11:25;101837.88;;;11.24;82.61
72909;BME280;61051;62.624;17.950;2022-07-12T01:13:54;101838.40;;;11.33;83.31
72909;BME280;61051;62.624;17.950;2022-07-12T01:16:23;101836.02;;;11.38;83.60
72909;BME280;61051;62.624;17.950;2022-07-12T01:18:52;101838.63;;;11.46;82.90
72909;BME280;61051;62.624;17.950;2022-07-12T01:21:22;101837.40;;;11.29;82.06
72909;BME280;61051;62.624;17.950;2022-07-12T01:23:51;101840.24;;;11.28;82.15
72909;BME280;61051;62.624;17.950;2022-07-12T01:26:20;101840.36;;;11.03;82.58
72909;BME280;61051;62.624;17.950;2022-07-12T01:28:48;101841.09;;;10.97;81.97
72909;BME280;61051;62.624;17.950;2022-07-12T01:31:18;101841.04;;;11.03;82.15
72909;BME280;61051;62.624;17.950;2022-07-12T01:33:46;101843.92;;;10.93;83.46
72909;BME280;61051;62.624;17.950;2022-07-12T01:36:15;101852.86;;;11.15;85.96
72909;BME280;61051;62.624;17.950;2022-07-12T01:38:43;101855.14;;;11.19;84.01
72909;BME280;61051;62.624;17.950;2022-07-12T01:41:12;101848.77;;;11.25;84.59
72909;BME280;61051;62.624;17.950;2022-07-12T01:43:40;101847.23;;;11.53;85.32
72909;BME280;61051;62.624;17.950;2022-07-12T01:46:08;101844.10;;;11.53;84.73
72909;BME280;61051;62.624;17.950;2022-07-12T01:48:36;101841.81;;;11.48;82.60
72909;BME280;61051;62.624;17.950;2022-07-12T01:51:05;101835.24;;;11.35;81.28
72909;BME280;61051;62.624;17.950;2022-07-12T01:53:34;101837.64;;;11.21;80.95
72909;BME280;61051;62.624;17.950;2022-07-12T01:56:03;101839.20;;;11.21;81.32
72909;BME280;61051;62.624;17.950;2022-07-12T01:58:31;101836.97;;;11.20;84.36
72909;BME280;61051;62.624;17.950;2022-07-12T02:01:00;101833.12;;;11.30;82.20
72909;BME280;61051;62.624;17.950;2022-07-12T02:03:28;101829.73;;;11.21;81.43
72909;BME280;61051;62.624;17.950;2022-07-12T02:05:56;101834.56;;;11.13;82.17
72909;BME280;61051;62.624;17.950;2022-07-12T02:08:26;101841.91;;;11.25;82.76
72909;BME280;61051;62.624;17.950;2022-07-12T02:10:54;101845.59;;;11.21;82.55
72909;BME280;61051;62.624;17.950;2022-07-12T02:13:22;101848.91;;;11.21;82.81
72909;BME280;61051;62.624;17.950;2022-07-12T02:15:51;101853.13;;;11.33;82.51
72909;BME280;61051;62.624;17.950;2022-07-12T02:18:19;101854.21;;;11.30;82.59
72909;BME280;61051;62.624;17.950;2022-07-12T02:20:52;101853.04;;;11.36;82.78
72909;BME280;61051;62.624;17.950;2022-07-12T02:23:21;101856.49;;;11.32;83.01
72909;BME280;61051;62.624;17.950;2022-07-12T02:25:49;101859.55;;;11.32;82.73
72909;BME280;61051;62.624;17.950;2022-07-12T02:28:17;101862.09;;;11.36;82.17
72909;BME280;61051;62.624;17.950;2022-07-12T02:30:45;101856.82;;;11.48;82.70
72909;BME280;61051;62.624;17.950;2022-07-12T02:33:14;101856.71;;;11.48;82.43
72909;BME280;61051;62.624;17.950;2022-07-12T02:35:42;101856.71;;;11.73;82.27
72909;BME280;61051;62.624;17.950;2022-07-12T02:38:10;101858.11;;;11.81;81.79
72909;BME280;61051;62.624;17.950;2022-07-12T02:40:38;101860.03;;;11.69;82.38
72909;BME280;61051;62.624;17.950;2022-07-12T02:43:07;101861.96;;;11.85;81.62
72909;BME280;61051;62.624;17.950;2022-07-12T02:45:35;101863.63;;;11.80;81.41
72909;BME280;61051;62.624;17.950;2022-07-12T02:48:04;101862.76;;;11.81;80.57
72909;BME280;61051;62.624;17.950;2022-07-12T02:50:33;101858.66;;;11.87;79.56
72909;BME280;61051;62.624;17.950;2022-07-12T02:53:01;101859.93;;;11.95;80.03
72909;BME280;61051;62.624;17.950;2022-07-12T02:55:30;101860.80;;;11.89;79.63
72909;BME280;61051;62.624;17.950;2022-07-12T02:57:59;101863.55;;;11.99;79.09
72909;BME280;61051;62.624;17.950;2022-07-12T03:00:29;101866.00;;;11.95;80.22
72909;BME280;61051;62.624;17.950;2022-07-12T03:02:59;101865.66;;;12.04;80.13
72909;BME280;61051;62.624;17.950;2022-07-12T03:05:28;101864.71;;;12.03;80.10
72909;BME280;61051;62.624;17.950;2022-07-12T03:07:57;101864.98;;;12.12;79.92
72909;BME280;61051;62.624;17.950;2022-07-12T03:10:26;101870.09;;;12.30;80.39
72909;BME280;61051;62.624;17.950;2022-07-12T03:12:57;101872.61;;;12.23;80.49
72909;BME280;61051;62.624;17.950;2022-07-12T03:15:26;101870.15;;;12.37;80.73
72909;BME280;61051;62.624;17.950;2022-07-12T03:17:58;101866.63;;;12.39;80.46
72909;BME280;61051;62.624;17.950;2022-07-12T03:20:28;101864.51;;;12.57;80.38
72909;BME280;61051;62.624;17.950;2022-07-12T03:22:57;101864.33;;;12.61;80.08
72909;BME280;61051;62.624;17.950;2022-07-12T03:25:26;101869.14;;;12.68;79.50
72909;BME280;61051;62.624;17.950;2022-07-12T03:27:54;101868.11;;;12.87;79.14
72909;BME280;61051;62.624;17.950;2022-07-12T03:30:23;101870.08;;;12.79;79.23
72909;BME280;61051;62.624;17.950;2022-07-12T03:32:51;101864.82;;;13.10;77.78
72909;BME280;61051;62.624;17.950;2022-07-12T03:35:19;101865.69;;;13.12;77.16
72909;BME280;61051;62.624;17.950;2022-07-12T03:37:49;101860.17;;;13.22;77.76
72909;BME280;61051;62.624;17.950;2022-07-12T03:40:19;101858.64;;;13.23;75.74
72909;BME280;61051;62.624;17.950;2022-07-12T03:42:48;101853.32;;;13.36;75.71
72909;BME280;61051;62.624;17.950;2022-07-12T03:45:17;101850.06;;;13.51;75.34
72909;BME280;61051;62.624;17.950;2022-07-12T03:47:47;101845.77;;;13.56;75.75
72909;BME280;61051;62.624;17.950;2022-07-12T03:50:17;101842.56;;;13.60;75.40
72909;BME280;61051;62.624;17.950;2022-07-12T03:52:45;101844.70;;;13.69;74.86
72909;BME280;61051;62.624;17.950;2022-07-12T03:55:13;101846.84;;;13.73;74.57
72909;BME280;61051;62.624;17.950;2022-07-12T03:57:42;101847.21;;;13.90;74.17
72909;BME280;61051;62.624;17.950;2022-07-12T04:03:17;101849.55;;;14.01;72.89
72909;BME280;61051;62.624;17.950;2022-07-12T04:05:45;101849.02;;;13.93;72.79
72909;BME280;61051;62.624;17.950;2022-07-12T04:08:13;101847.63;;;14.10;73.56
72909;BME280;61051;62.624;17.950;2022-07-12T04:10:41;101842.29;;;14.19;71.19
72909;BME280;61051;62.624;17.950;2022-07-12T04:13:10;101840.03;;;14.27;69.87
72909;BME280;61051;62.624;17.950;2022-07-12T04:15:38;101837.47;;;14.24;68.56
72909;BME280;61051;62.624;17.950;2022-07-12T04:18:06;101840.83;;;14.41;68.90
72909;BME280;61051;62.624;17.950;2022-07-12T04:20:34;101841.32;;;14.55;68.17
72909;BME280;61051;62.624;17.950;2022-07-12T04:23:02;101843.19;;;14.55;67.24
72909;BME280;61051;62.624;17.950;2022-07-12T04:25:31;101840.83;;;14.57;66.50
72909;BME280;61051;62.624;17.950;2022-07-12T04:27:59;101840.56;;;14.60;67.13
72909;BME280;61051;62.624;17.950;2022-07-12T04:30:27;101841.40;;;14.75;67.03
72909;BME280;61051;62.624;17.950;2022-07-12T04:32:55;101840.45;;;14.92;66.86
72909;BME280;61051;62.624;17.950;2022-07-12T04:35:24;101836.46;;;14.95;66.01
72909;BME280;61051;62.624;17.950;2022-07-12T04:37:53;101831.87;;;15.10;66.86
72909;BME280;61051;62.624;17.950;2022-07-12T04:40:22;101830.90;;;15.21;65.98
72909;BME280;61051;62.624;17.950;2022-07-12T04:42:51;101826.55;;;15.63;64.40
72909;BME280;61051;62.624;17.950;2022-07-12T04:45:20;101824.84;;;15.67;64.22
72909;BME280;61051;62.624;17.950;2022-07-12T04:47:48;101820.37;;;15.59;64.20
72909;BME280;61051;62.624;17.950;2022-07-12T04:50:16;101819.24;;;15.81;65.45
72909;BME280;61051;62.624;17.950;2022-07-12T04:52:44;101819.84;;;15.78;64.58
72909;BME280;61051;62.624;17.950;2022-07-12T04:55:13;101820.10;;;15.84;64.69
72909;BME280;61051;62.624;17.950;2022-07-12T04:57:41;101822.18;;;15.95;64.39
72909;BME280;61051;62.624;17.950;2022-07-12T05:00:10;101821.92;;;15.88;63.77
72909;BME280;61051;62.624;17.950;2022-07-12T05:02:39;101820.42;;;15.93;64.10
72909;BME280;61051;62.624;17.950;2022-07-12T05:05:07;101823.35;;;16.08;64.01
72909;BME280;61051;62.624;17.950;2022-07-12T05:07:36;101820.76;;;16.10;63.28
72909;BME280;61051;62.624;17.950;2022-07-12T05:10:04;101817.06;;;16.33;62.61
72909;BME280;61051;62.624;17.950;2022-07-12T05:12:34;101808.78;;;16.44;61.26
72909;BME280;61051;62.624;17.950;2022-07-12T05:15:02;101805.00;;;16.69;61.67
72909;BME280;61051;62.624;17.950;2022-07-12T05:17:30;101804.05;;;16.84;61.51
72909;BME280;61051;62.624;17.950;2022-07-12T05:19:58;101801.85;;;16.92;61.04
72909;BME280;61051;62.624;17.950;2022-07-12T05:22:26;101803.84;;;17.20;61.09
72909;BME280;61051;62.624;17.950;2022-07-12T05:24:54;101806.09;;;17.21;60.31
72909;BME280;61051;62.624;17.950;2022-07-12T05:27:22;101808.98;;;17.36;58.45
72909;BME280;61051;62.624;17.950;2022-07-12T05:29:52;101811.57;;;17.26;58.97
72909;BME280;61051;62.624;17.950;2022-07-12T05:32:20;101812.25;;;17.13;59.24
72909;BME280;61051;62.624;17.950;2022-07-12T05:34:48;101815.30;;;17.14;59.78
72909;BME280;61051;62.624;17.950;2022-07-12T05:37:17;101813.21;;;17.44;58.51
72909;BME280;61051;62.624;17.950;2022-07-12T05:39:45;101816.48;;;17.59;57.29
72909;BME280;61051;62.624;17.950;2022-07-12T05:42:13;101812.98;;;17.69;57.23
72909;BME280;61051;62.624;17.950;2022-07-12T05:44:41;101811.79;;;17.81;56.14
72909;BME280;61051;62.624;17.950;2022-07-12T05:47:09;101814.47;;;17.91;55.45
72909;BME280;61051;62.624;17.950;2022-07-12T05:49:37;101810.57;;;17.83;54.94
72909;BME280;61051;62.624;17.950;2022-07-12T05:52:06;101809.67;;;17.99;52.73
72909;BME280;61051;62.624;17.950;2022-07-12T05:54:35;101811.44;;;18.09;53.29
72909;BME280;61051;62.624;17.950;2022-07-12T05:57:04;101807.24;;;18.11;52.61
72909;BME280;61051;62.624;17.950;2022-07-12T05:59:34;101807.83;;;18.20;53.29
72909;BME280;61051;62.624;17.950;2022-07-12T06:02:04;101810.43;;;18.34;52.69
72909;BME280;61051;62.624;17.950;2022-07-12T06:04:33;101812.95;;;18.41;54.58
72909;BME280;61051;62.624;17.950;2022-07-12T06:07:02;101812.38;;;18.60;53.72
72909;BME280;61051;62.624;17.950;2022-07-12T06:09:32;101813.82;;;18.67;51.89
72909;BME280;61051;62.624;17.950;2022-07-12T06:12:00;101812.40;;;18.83;52.07
72909;BME280;61051;62.624;17.950;2022-07-12T06:14:29;101809.29;;;18.99;52.54
72909;BME280;61051;62.624;17.950;2022-07-12T06:16:57;101804.56;;;19.11;52.14
72909;BME280;61051;62.624;17.950;2022-07-12T06:19:25;101799.50;;;19.16;51.55
72909;BME280;61051;62.624;17.950;2022-07-12T06:21:53;101798.05;;;19.38;51.19
72909;BME280;61051;62.624;17.950;2022-07-12T06:24:21;101797.09;;;19.52;51.26
72909;BME280;61051;62.624;17.950;2022-07-12T06:26:54;101798.07;;;19.52;51.45
72909;BME280;61051;62.624;17.950;2022-07-12T06:29:22;101798.43;;;19.53;51.03
72909;BME280;61051;62.624;17.950;2022-07-12T06:31:51;101798.46;;;19.71;50.67
72909;BME280;61051;62.624;17.950;2022-07-12T06:34:20;101795.62;;;19.69;51.02
72909;BME280;61051;62.624;17.950;2022-07-12T06:36:51;101794.78;;;19.77;51.32
72909;BME280;61051;62.624;17.950;2022-07-12T06:39:19;101794.46;;;19.86;50.55
72909;BME280;61051;62.624;17.950;2022-07-12T06:41:47;101793.36;;;19.89;51.53
72909;BME280;61051;62.624;17.950;2022-07-12T06:44:16;101790.57;;;19.96;51.20
72909;BME280;61051;62.624;17.950;2022-07-12T06:46:45;101790.17;;;20.22;52.04
72909;BME280;61051;62.624;17.950;2022-07-12T06:49:14;101788.35;;;20.54;50.01
72909;BME280;61051;62.624;17.950;2022-07-12T06:51:42;101788.52;;;20.40;48.14
72909;BME280;61051;62.624;17.950;2022-07-12T06:54:10;101792.92;;;20.56;49.26
72909;BME280;61051;62.624;17.950;2022-07-12T06:56:38;101793.78;;;20.69;48.89
72909;BME280;61051;62.624;17.950;2022-07-12T06:59:06;101793.69;;;20.83;48.91
72909;BME280;61051;62.624;17.950;2022-07-12T07:01:34;101789.59;;;20.83;48.09
72909;BME280;61051;62.624;17.950;2022-07-12T07:04:03;101786.79;;;20.92;48.04
72909;BME280;61051;62.624;17.950;2022-07-12T07:06:32;101785.59;;;20.90;48.59
72909;BME280;61051;62.624;17.950;2022-07-12T07:09:00;101787.47;;;21.11;48.09
72909;BME280;61051;62.624;17.950;2022-07-12T07:11:29;101788.55;;;21.10;48.68
72909;BME280;61051;62.624;17.950;2022-07-12T07:13:56;101782.53;;;21.40;46.58
72909;BME280;61051;62.624;17.950;2022-07-12T07:16:25;101781.29;;;21.63;46.56
72909;BME280;61051;62.624;17.950;2022-07-12T07:18:53;101781.34;;;21.54;48.56
72909;BME280;61051;62.624;17.950;2022-07-12T07:21:23;101777.79;;;21.70;48.77
72909;BME280;61051;62.624;17.950;2022-07-12T07:23:51;101769.61;;;21.87;46.93
72909;BME280;61051;62.624;17.950;2022-07-12T07:26:20;101771.22;;;21.82;46.40
72909;BME280;61051;62.624;17.950;2022-07-12T07:28:48;101771.09;;;22.29;46.41
72909;BME280;61051;62.624;17.950;2022-07-12T07:31:16;101773.20;;;22.52;41.51
72909;BME280;61051;62.624;17.950;2022-07-12T07:33:44;101770.30;;;22.51;41.17
72909;BME280;61051;62.624;17.950;2022-07-12T07:36:12;101770.80;;;22.65;39.30
72909;BME280;61051;62.624;17.950;2022-07-12T07:38:40;101767.88;;;22.82;40.23
72909;BME280;61051;62.624;17.950;2022-07-12T07:41:08;101767.14;;;22.83;37.59
72909;BME280;61051;62.624;17.950;2022-07-12T07:43:36;101766.72;;;22.97;38.34
72909;BME280;61051;62.624;17.950;2022-07-12T07:46:05;101765.24;;;23.27;36.92
72909;BME280;61051;62.624;17.950;2022-07-12T07:48:33;101757.85;;;23.45;36.64
72909;BME280;61051;62.624;17.950;2022-07-12T07:51:01;101756.48;;;23.63;33.59
72909;BME280;61051;62.624;17.950;2022-07-12T07:53:28;101755.87;;;23.81;32.67
72909;BME280;61051;62.624;17.950;2022-07-12T07:55:57;101753.74;;;24.10;31.47
72909;BME280;61051;62.624;17.950;2022-07-12T07:58:25;101751.90;;;24.25;32.51
72909;BME280;61051;62.624;17.950;2022-07-12T08:00:53;101753.68;;;24.32;32.23
72909;BME280;61051;62.624;17.950;2022-07-12T08:03:22;101755.69;;;24.05;34.12
72909;BME280;61051;62.624;17.950;2022-07-12T08:05:51;101752.65;;;24.23;32.73
72909;BME280;61051;62.624;17.950;2022-07-12T08:08:20;101750.16;;;24.37;31.48
72909;BME280;61051;62.624;17.950;2022-07-12T08:10:49;101746.06;;;24.44;32.36
72909;BME280;61051;62.624;17.950;2022-07-12T08:13:18;101741.75;;;24.37;31.57
72909;BME280;61051;62.624;17.950;2022-07-12T08:15:46;101742.03;;;24.48;30.42
72909;BME280;61051;62.624;17.950;2022-07-12T08:18:14;101741.98;;;24.83;29.53
72909;BME280;61051;62.624;17.950;2022-07-12T08:20:43;101740.07;;;24.95;29.09
72909;BME280;61051;62.624;17.950;2022-07-12T08:23:12;101740.92;;;25.17;30.50
72909;BME280;61051;62.624;17.950;2022-07-12T08:25:40;101736.08;;;24.85;27.99
72909;BME280;61051;62.624;17.950;2022-07-12T08:28:07;101734.28;;;24.77;30.04
72909;BME280;61051;62.624;17.950;2022-07-12T08:30:36;101735.66;;;25.08;27.86
72909;BME280;61051;62.624;17.950;2022-07-12T08:33:03;101732.22;;;25.45;25.57
72909;BME280;61051;62.624;17.950;2022-07-12T08:35:31;101727.40;;;25.51;24.14
72909;BME280;61051;62.624;17.950;2022-07-12T08:37:59;101725.38;;;25.67;25.87
72909;BME280;61051;62.624;17.950;2022-07-12T08:40:27;101719.61;;;25.95;26.83
72909;BME280;61051;62.624;17.950;2022-07-12T08:42:56;101720.85;;;26.12;27.77
72909;BME280;61051;62.624;17.950;2022-07-12T08:45:25;101720.42;;;26.53;27.05
72909;BME280;61051;62.624;17.950;2022-07-12T08:47:54;101722.24;;;26.67;26.84
72909;BME280;61051;62.624;17.950;2022-07-12T08:50:23;101726.37;;;26.58;26.36
72909;BME280;61051;62.624;17.950;2022-07-12T08:52:53;101727.87;;;26.41;26.79
72909;BME280;61051;62.624;17.950;2022-07-12T08:55:23;101723.82;;;26.15;26.28
72909;BME280;61051;62.624;17.950;2022-07-12T08:57:54;101718.30;;;26.07;26.29
72909;BME280;61051;62.624;17.950;2022-07-12T09:00:22;101716.87;;;26.17;25.66
72909;BME280;61051;62.624;17.950;2022-07-12T09:02:54;101720.82;;;26.37;28.93
72909;BME280;61051;62.624;17.950;2022-07-12T09:05:24;101715.84;;;26.75;24.25
72909;BME280;61051;62.624;17.950;2022-07-12T09:08:02;101716.33;;;26.58;25.07
72909;BME280;61051;62.624;17.950;2022-07-12T09:10:32;101714.13;;;26.76;27.07
72909;BME280;61051;62.624;17.950;2022-07-12T09:13:01;101710.17;;;26.67;24.16
72909;BME280;61051;62.624;17.950;2022-07-12T09:15:29;101710.20;;;26.81;28.10
72909;BME280;61051;62.624;17.950;2022-07-12T09:17:58;101710.46;;;26.95;26.66
72909;BME280;61051;62.624;17.950;2022-07-12T09:20:27;101708.97;;;26.60;25.47
72909;BME280;61051;62.624;17.950;2022-07-12T09:23:01;101713.40;;;26.95;25.06
72909;BME280;61051;62.624;17.950;2022-07-12T09:25:31;101703.86;;;27.29;24.67
72909;BME280;61051;62.624;17.950;2022-07-12T09:28:04;101699.01;;;27.51;24.05
72909;BME280;61051;62.624;17.950;2022-07-12T09:30:33;101695.62;;;27.50;24.57
72909;BME280;61051;62.624;17.950;2022-07-12T09:33:04;101695.41;;;27.40;26.39
72909;BME280;61051;62.624;17.950;2022-07-12T09:35:33;101695.11;;;27.59;24.85
72909;BME280;61051;62.624;17.950;2022-07-12T09:38:08;101687.52;;;27.62;24.31
72909;BME280;61051;62.624;17.950;2022-07-12T09:40:37;101691.66;;;27.93;24.16
72909;BME280;61051;62.624;17.950;2022-07-12T09:43:05;101687.18;;;27.93;24.65
72909;BME280;61051;62.624;17.950;2022-07-12T09:45:34;101690.32;;;27.97;25.64
72909;BME280;61051;62.624;17.950;2022-07-12T09:48:04;101691.19;;;27.89;23.17
72909;BME280;61051;62.624;17.950;2022-07-12T09:50:32;101686.48;;;28.07;21.74
72909;BME280;61051;62.624;17.950;2022-07-12T09:53:04;101686.23;;;27.93;22.71
72909;BME280;61051;62.624;17.950;2022-07-12T09:55:35;101686.43;;;28.36;22.48
72909;BME280;61051;62.624;17.950;2022-07-12T09:58:04;101688.83;;;28.70;21.94
72909;BME280;61051;62.624;17.950;2022-07-12T10:03:21;101678.31;;;28.53;23.39
72909;BME280;61051;62.624;17.950;2022-07-12T10:05:51;101678.80;;;28.83;21.78
72909;BME280;61051;62.624;17.950;2022-07-12T10:08:21;101672.12;;;28.61;23.54
72909;BME280;61051;62.624;17.950;2022-07-12T10:10:50;101669.74;;;28.76;23.60
72909;BME280;61051;62.624;17.950;2022-07-12T10:13:20;101668.96;;;28.93;22.30
72909;BME280;61051;62.624;17.950;2022-07-12T10:15:50;101657.91;;;29.22;25.03
72909;BME280;61051;62.624;17.950;2022-07-12T10:18:20;101667.59;;;29.19;20.58
72909;BME280;61051;62.624;17.950;2022-07-12T10:20:49;101668.06;;;29.06;20.76
72909;BME280;61051;62.624;17.950;2022-07-12T10:23:34;101663.53;;;28.70;22.29
72909;BME280;61051;62.624;17.950;2022-07-12T10:26:44;101662.26;;;28.53;21.44
72909;BME280;61051;62.624;17.950;2022-07-12T10:29:19;101653.57;;;28.58;21.28
72909;BME280;61051;62.624;17.950;2022-07-12T10:31:48;101651.31;;;29.20;21.17
72909;BME280;61051;62.624;17.950;2022-07-12T10:34:21;101648.25;;;29.08;23.62
72909;BME280;61051;62.624;17.950;2022-07-12T10:37:08;101647.11;;;29.07;23.40
72909;BME280;61051;62.624;17.950;2022-07-12T10:39:36;101644.71;;;28.91;23.45
72909;BME280;61051;62.624;17.950;2022-07-12T10:42:14;101646.13;;;28.86;24.60
72909;BME280;61051;62.624;17.950;2022-07-12T10:44:46;101640.81;;;28.95;23.79
72909;BME280;61051;62.624;17.950;2022-07-12T10:47:16;101635.10;;;28.64;24.13
72909;BME280;61051;62.624;17.950;2022-07-12T10:49:49;101631.51;;;28.28;24.80
72909;BME280;61051;62.624;17.950;2022-07-12T10:52:23;101626.75;;;28.38;23.90
72909;BME280;61051;62.624;17.950;2022-07-12T10:55:17;101619.24;;;28.77;24.39
72909;BME280;61051;62.624;17.950;2022-07-12T10:57:48;101615.17;;;29.00;23.83
72909;BME280;61051;62.624;17.950;2022-07-12T11:00:17;101617.99;;;29.09;22.81
72909;BME280;61051;62.624;17.950;2022-07-12T11:02:47;101614.91;;;29.22;23.29
72909;BME280;61051;62.624;17.950;2022-07-12T11:05:15;101614.88;;;29.31;24.10
72909;BME280;61051;62.624;17.950;2022-07-12T11:07:43;101615.34;;;29.75;21.93
72909;BME280;61051;62.624;17.950;2022-07-12T11:10:13;101616.21;;;30.08;21.54
72909;BME280;61051;62.624;17.950;2022-07-12T11:12:44;101610.79;;;29.88;19.98
72909;BME280;61051;62.624;17.950;2022-07-12T11:15:11;101605.68;;;30.11;19.63
72909;BME280;61051;62.624;17.950;2022-07-12T11:17:39;101605.90;;;30.51;19.50
72909;BME280;61051;62.624;17.950;2022-07-12T11:20:10;101602.62;;;30.32;20.64
72909;BME280;61051;62.624;17.950;2022-07-12T11:22:40;101606.29;;;30.65;20.49
72909;BME280;61051;62.624;17.950;2022-07-12T11:25:10;101601.15;;;31.34;17.79
72909;BME280;61051;62.624;17.950;2022-07-12T11:27:38;101605.04;;;31.54;17.47
72909;BME280;61051;62.624;17.950;2022-07-12T11:30:08;101599.71;;;31.69;18.67
72909;BME280;61051;62.624;17.950;2022-07-12T11:32:38;101600.72;;;31.18;18.10
72909;BME280;61051;62.624;17.950;2022-07-12T11:35:17;101605.17;;;31.10;17.80
72909;BME280;61051;62.624;17.950;2022-07-12T11:37:51;101594.41;;;32.14;16.93
72909;BME280;61051;62.624;17.950;2022-07-12T11:40:23;101588.80;;;33.75;16.14
72909;BME280;61051;62.624;17.950;2022-07-12T11:42:55;101588.63;;;34.22;14.66
72909;BME280;61051;62.624;17.950;2022-07-12T11:45:23;101583.83;;;34.34;14.39
72909;BME280;61051;62.624;17.950;2022-07-12T11:47:53;101594.22;;;34.67;15.03
72909;BME280;61051;62.624;17.950;2022-07-12T11:50:22;101584.42;;;35.18;14.80
72909;BME280;61051;62.624;17.950;2022-07-12T11:52:53;101581.43;;;35.72;14.67
72909;BME280;61051;62.624;17.950;2022-07-12T11:55:22;101574.20;;;35.89;13.93
72909;BME280;61051;62.624;17.950;2022-07-12T11:58:03;101569.32;;;36.53;13.54
72909;BME280;61051;62.624;17.950;2022-07-12T12:00:31;101565.72;;;36.08;12.81
72909;BME280;61051;62.624;17.950;2022-07-12T12:02:59;101559.21;;;36.22;12.84
72909;BME280;61051;62.624;17.950;2022-07-12T12:05:28;101555.52;;;37.52;13.81
72909;BME280;61051;62.624;17.950;2022-07-12T12:07:57;101550.90;;;38.16;12.62
72909;BME280;61051;62.624;17.950;2022-07-12T12:10:25;101548.75;;;38.17;12.90
72909;BME280;61051;62.624;17.950;2022-07-12T12:12:55;101552.14;;;38.78;12.14
72909;BME280;61051;62.624;17.950;2022-07-12T12:15:26;101544.86;;;38.13;12.84
72909;BME280;61051;62.624;17.950;2022-07-12T12:17:57;101542.75;;;38.21;13.60
72909;BME280;61051;62.624;17.950;2022-07-12T12:20:28;101537.19;;;37.88;12.78
72909;BME280;61051;62.624;17.950;2022-07-12T12:22:59;101534.91;;;38.29;13.80
72909;BME280;61051;62.624;17.950;2022-07-12T12:25:31;101538.54;;;39.30;12.63
72909;BME280;61051;62.624;17.950;2022-07-12T12:28:00;101541.44;;;40.09;10.62
72909;BME280;61051;62.624;17.950;2022-07-12T12:30:30;101538.87;;;39.41;10.84
72909;BME280;61051;62.624;17.950;2022-07-12T12:32:59;101538.01;;;38.92;10.96
72909;BME280;61051;62.624;17.950;2022-07-12T12:35:31;101535.72;;;38.67;11.71
72909;BME280;61051;62.624;17.950;2022-07-12T12:38:00;101526.02;;;38.41;11.82
72909;BME280;61051;62.624;17.950;2022-07-12T12:40:30;101528.51;;;38.56;11.68
72909;BME280;61051;62.624;17.950;2022-07-12T12:43:06;101525.52;;;39.13;13.61
72909;BME280;61051;62.624;17.950;2022-07-12T12:45:36;101528.55;;;39.03;11.37
72909;BME280;61051;62.624;17.950;2022-07-12T12:48:18;101520.42;;;39.36;12.19
72909;BME280;61051;62.624;17.950;2022-07-12T12:50:49;101517.64;;;39.27;11.58
72909;BME280;61051;62.624;17.950;2022-07-12T12:53:20;101513.32;;;38.73;11.53
72909;BME280;61051;62.624;17.950;2022-07-12T12:55:51;101509.93;;;39.36;11.78
72909;BME280;61051;62.624;17.950;2022-07-12T12:58:21;101516.16;;;39.55;12.10